sensor_id;sensor_type;location;lat;lon;timestamp;pressure;altitude;pressure_sealevel;temperature;humidity
5283;BME280;15376;48.540;9.268;2023-06-10T00:02:15;97064.38;;;15.61;100.00
5283;BME280;15376;48.540;9.268;2023-06-10T00:04:42;97075.63;;;15.52;100.00
5283;BME280;15376;48.540;9.268;2023-06-10T00:07:07;97035.53;;;15.27;100.00
5283;BME280;15376;48.540;9.268;2023-06-10T00:09:37;97065.22;;;15.44;100.00
5283;BME280;15376;48.540;9.268;2023-06-10T00:12:07;97055.63;;;15.54;100.00
5283;BME280;15376;48.540;9.268;2023-06-10T00:14:37;97065.72;;;15.52;100.00
5283;BME280;15376;48.540;9.268;2023-06-10T00:17:02;97073.59;;;15.47;100.00
5283;BME280;15376;48.540;9.268;2023-06-10T00:19:27;97067.94;;;15.37;100.00
5283;BME280;15376;48.540;9.268;2023-06-10T00:21:56;97079.69;;;15.54;100.00
5283;BME280;15376;48.540;9.268;2023-06-10T00:24:22;97063.03;;;15.34;100.00
5283;BME280;15376;48.540;9.268;2023-06-10T00:26:47;97060.31;;;15.41;100.00
5283;BME280;15376;48.540;9.268;2023-06-10T00:29:13;97062.31;;;15.27;100.00
5283;BME280;15376;48.540;9.268;2023-06-10T00:31:39;97073.88;;;15.21;100.00
5283;BME280;15376;48.540;9.268;2023-06-10T00:34:05;97059.25;;;15.05;100.00
5283;BME280;15376;48.540;9.268;2023-06-10T00:36:32;97074.31;;;14.99;100.00
5283;BME280;15376;48.540;9.268;2023-06-10T00:38:57;97075.31;;;15.05;100.00
5283;BME280;15376;48.540;9.268;2023-06-10T00:41:22;97068.97;;;14.99;100.00
5283;BME280;15376;48.540;9.268;2023-06-10T00:43:48;97049.78;;;14.84;100.00
5283;BME280;15376;48.540;9.268;2023-06-10T00:46:13;97048.53;;;14.87;100.00
5283;BME280;15376;48.540;9.268;2023-06-10T00:48:41;97072.63;;;15.05;100.00
5283;BME280;15376;48.540;9.268;2023-06-10T00:51:07;97074.19;;;15.13;100.00
5283;BME280;15376;48.540;9.268;2023-06-10T00:53:36;97083.53;;;15.04;100.00
5283;BME280;15376;48.540;9.268;2023-06-10T00:56:03;97063.91;;;14.91;100.00
5283;BME280;15376;48.540;9.268;2023-06-10T00:58:29;97080.09;;;14.78;100.00
5283;BME280;15376;48.540;9.268;2023-06-10T01:00:55;97081.78;;;14.73;100.00
5283;BME280;15376;48.540;9.268;2023-06-10T01:03:20;97076.44;;;14.73;100.00
5283;BME280;15376;48.540;9.268;2023-06-10T01:05:53;97073.53;;;14.74;100.00
5283;BME280;15376;48.540;9.268;2023-06-10T01:08:46;97075.84;;;14.71;100.00
5283;BME280;15376;48.540;9.268;2023-06-10T01:11:23;97057.03;;;14.59;100.00
5283;BME280;15376;48.540;9.268;2023-06-10T01:13:50;97075.44;;;14.67;100.00
5283;BME280;15376;48.540;9.268;2023-06-10T01:16:17;97070.94;;;14.67;100.00
5283;BME280;15376;48.540;9.268;2023-06-10T01:18:44;97046.97;;;14.54;100.00
5283;BME280;15376;48.540;9.268;2023-06-10T01:21:13;97060.59;;;14.46;100.00
5283;BME280;15376;48.540;9.268;2023-06-10T01:23:38;97045.97;;;14.24;100.00
5283;BME280;15376;48.540;9.268;2023-06-10T01:26:09;97054.72;;;14.38;100.00
5283;BME280;15376;48.540;9.268;2023-06-10T01:28:51;97052.16;;;14.18;100.00
5283;BME280;15376;48.540;9.268;2023-06-10T01:34:00;97060.91;;;14.31;100.00
5283;BME280;15376;48.540;9.268;2023-06-10T01:36:26;97079.56;;;14.38;100.00
5283;BME280;15376;48.540;9.268;2023-06-10T01:38:53;97077.31;;;14.35;100.00
5283;BME280;15376;48.540;9.268;2023-06-10T01:41:19;97079.31;;;14.40;100.00
5283;BME280;15376;48.540;9.268;2023-06-10T01:43:47;97082.81;;;14.40;100.00
5283;BME280;15376;48.540;9.268;2023-06-10T01:46:13;97078.66;;;14.51;100.00
5283;BME280;15376;48.540;9.268;2023-06-10T01:48:41;97075.88;;;14.39;100.00
5283;BME280;15376;48.540;9.268;2023-06-10T01:51:06;97086.00;;;13.99;100.00
5283;BME280;15376;48.540;9.268;2023-06-10T01:53:32;97066.22;;;13.68;100.00
5283;BME280;15376;48.540;9.268;2023-06-10T01:55:57;97078.53;;;13.69;100.00
5283;BME280;15376;48.540;9.268;2023-06-10T01:58:22;97073.88;;;13.58;100.00
5283;BME280;15376;48.540;9.268;2023-06-10T02:00:48;97072.38;;;13.69;100.00
5283;BME280;15376;48.540;9.268;2023-06-10T02:03:13;97088.78;;;13.73;100.00
5283;BME280;15376;48.540;9.268;2023-06-10T02:05:39;97088.94;;;13.84;100.00
5283;BME280;15376;48.540;9.268;2023-06-10T02:08:05;97076.84;;;13.82;100.00
5283;BME280;15376;48.540;9.268;2023-06-10T02:10:30;97063.03;;;13.91;100.00
5283;BME280;15376;48.540;9.268;2023-06-10T02:12:56;97072.19;;;14.02;100.00
5283;BME280;15376;48.540;9.268;2023-06-10T02:15:21;97069.69;;;14.07;100.00
5283;BME280;15376;48.540;9.268;2023-06-10T02:17:46;97081.44;;;13.99;100.00
5283;BME280;15376;48.540;9.268;2023-06-10T02:20:14;97081.41;;;14.06;100.00
5283;BME280;15376;48.540;9.268;2023-06-10T02:22:39;97091.34;;;13.99;100.00
5283;BME280;15376;48.540;9.268;2023-06-10T02:25:05;97088.56;;;13.74;100.00
5283;BME280;15376;48.540;9.268;2023-06-10T02:27:31;97073.81;;;13.65;100.00
5283;BME280;15376;48.540;9.268;2023-06-10T02:29:57;97094.88;;;13.86;100.00
5283;BME280;15376;48.540;9.268;2023-06-10T02:32:22;97074.16;;;13.82;100.00
5283;BME280;15376;48.540;9.268;2023-06-10T02:34:48;97105.22;;;14.08;100.00
5283;BME280;15376;48.540;9.268;2023-06-10T02:37:14;97107.50;;;14.04;100.00
5283;BME280;15376;48.540;9.268;2023-06-10T02:39:40;97108.97;;;14.00;100.00
5283;BME280;15376;48.540;9.268;2023-06-10T02:42:06;97077.44;;;13.84;100.00
5283;BME280;15376;48.540;9.268;2023-06-10T02:44:31;97100.38;;;13.98;100.00
5283;BME280;15376;48.540;9.268;2023-06-10T02:46:57;97094.66;;;13.88;100.00
5283;BME280;15376;48.540;9.268;2023-06-10T02:49:22;97092.25;;;13.80;100.00
5283;BME280;15376;48.540;9.268;2023-06-10T02:51:49;97102.91;;;13.80;100.00
5283;BME280;15376;48.540;9.268;2023-06-10T02:54:18;97116.03;;;13.88;100.00
5283;BME280;15376;48.540;9.268;2023-06-10T02:56:43;97113.13;;;13.89;100.00
5283;BME280;15376;48.540;9.268;2023-06-10T02:59:08;97114.00;;;13.77;100.00
5283;BME280;15376;48.540;9.268;2023-06-10T03:01:34;97109.13;;;13.67;100.00
5283;BME280;15376;48.540;9.268;2023-06-10T03:04:02;97115.66;;;13.78;100.00
5283;BME280;15376;48.540;9.268;2023-06-10T03:06:27;97096.69;;;13.48;100.00
5283;BME280;15376;48.540;9.268;2023-06-10T03:08:53;97126.88;;;13.42;100.00
5283;BME280;15376;48.540;9.268;2023-06-10T03:11:18;97130.78;;;13.39;100.00
5283;BME280;15376;48.540;9.268;2023-06-10T03:13:44;97130.22;;;13.17;100.00
5283;BME280;15376;48.540;9.268;2023-06-10T03:16:10;97134.91;;;13.02;100.00
5283;BME280;15376;48.540;9.268;2023-06-10T03:18:37;97132.44;;;13.14;100.00
5283;BME280;15376;48.540;9.268;2023-06-10T03:21:03;97135.13;;;13.07;100.00
5283;BME280;15376;48.540;9.268;2023-06-10T03:23:28;97136.16;;;12.99;100.00
5283;BME280;15376;48.540;9.268;2023-06-10T03:25:54;97119.38;;;12.79;100.00
5283;BME280;15376;48.540;9.268;2023-06-10T03:28:20;97136.75;;;12.95;100.00
5283;BME280;15376;48.540;9.268;2023-06-10T03:30:46;97125.28;;;12.81;100.00
5283;BME280;15376;48.540;9.268;2023-06-10T03:33:12;97153.16;;;12.59;100.00
5283;BME280;15376;48.540;9.268;2023-06-10T03:35:37;97145.38;;;12.57;100.00
5283;BME280;15376;48.540;9.268;2023-06-10T03:38:02;97136.34;;;12.85;100.00
5283;BME280;15376;48.540;9.268;2023-06-10T03:40:28;97108.88;;;12.45;100.00
5283;BME280;15376;48.540;9.268;2023-06-10T03:42:55;97146.59;;;12.81;100.00
5283;BME280;15376;48.540;9.268;2023-06-10T03:45:20;97163.00;;;12.91;100.00
5283;BME280;15376;48.540;9.268;2023-06-10T03:47:46;97140.69;;;12.66;100.00
5283;BME280;15376;48.540;9.268;2023-06-10T03:50:13;97164.25;;;12.62;100.00
5283;BME280;15376;48.540;9.268;2023-06-10T03:52:38;97145.38;;;12.51;100.00
5283;BME280;15376;48.540;9.268;2023-06-10T03:55:05;97163.63;;;12.67;100.00
5283;BME280;15376;48.540;9.268;2023-06-10T03:57:30;97172.25;;;12.69;100.00
5283;BME280;15376;48.540;9.268;2023-06-10T03:59:56;97156.03;;;12.90;100.00
5283;BME280;15376;48.540;9.268;2023-06-10T04:02:21;97167.53;;;13.11;100.00
5283;BME280;15376;48.540;9.268;2023-06-10T04:04:47;97171.41;;;13.28;100.00
5283;BME280;15376;48.540;9.268;2023-06-10T04:07:13;97173.25;;;13.41;100.00
5283;BME280;15376;48.540;9.268;2023-06-10T04:09:39;97166.66;;;13.43;100.00
5283;BME280;15376;48.540;9.268;2023-06-10T04:12:05;97173.88;;;13.36;100.00
5283;BME280;15376;48.540;9.268;2023-06-10T04:14:33;97168.28;;;13.57;100.00
5283;BME280;15376;48.540;9.268;2023-06-10T04:16:59;97171.13;;;13.62;100.00
5283;BME280;15376;48.540;9.268;2023-06-10T04:19:24;97164.94;;;13.68;100.00
5283;BME280;15376;48.540;9.268;2023-06-10T04:21:49;97160.41;;;13.76;100.00
5283;BME280;15376;48.540;9.268;2023-06-10T04:24:15;97149.28;;;13.85;100.00
5283;BME280;15376;48.540;9.268;2023-06-10T04:26:40;97166.53;;;13.89;100.00
5283;BME280;15376;48.540;9.268;2023-06-10T04:29:05;97181.44;;;14.03;100.00
5283;BME280;15376;48.540;9.268;2023-06-10T04:31:31;97159.34;;;13.90;100.00
5283;BME280;15376;48.540;9.268;2023-06-10T04:33:57;97169.09;;;14.09;100.00
5283;BME280;15376;48.540;9.268;2023-06-10T04:36:22;97159.84;;;14.12;100.00
5283;BME280;15376;48.540;9.268;2023-06-10T04:38:48;97170.25;;;14.26;100.00
5283;BME280;15376;48.540;9.268;2023-06-10T04:41:14;97167.19;;;14.23;100.00
5283;BME280;15376;48.540;9.268;2023-06-10T04:43:39;97156.97;;;14.13;100.00
5283;BME280;15376;48.540;9.268;2023-06-10T04:46:04;97166.16;;;14.24;100.00
5283;BME280;15376;48.540;9.268;2023-06-10T04:48:30;97069.09;;;13.67;100.00
5283;BME280;15376;48.540;9.268;2023-06-10T04:50:55;97182.25;;;14.49;100.00
5283;BME280;15376;48.540;9.268;2023-06-10T04:53:22;97163.47;;;14.62;100.00
5283;BME280;15376;48.540;9.268;2023-06-10T04:55:47;97158.91;;;14.69;100.00
5283;BME280;15376;48.540;9.268;2023-06-10T04:58:13;97165.16;;;14.81;100.00
5283;BME280;15376;48.540;9.268;2023-06-10T05:00:39;97177.41;;;14.95;100.00
5283;BME280;15376;48.540;9.268;2023-06-10T05:03:04;97193.34;;;15.09;100.00
5283;BME280;15376;48.540;9.268;2023-06-10T05:05:29;97187.34;;;15.13;100.00
5283;BME280;15376;48.540;9.268;2023-06-10T05:07:55;97178.38;;;15.26;100.00
5283;BME280;15376;48.540;9.268;2023-06-10T05:10:20;97195.06;;;15.46;100.00
5283;BME280;15376;48.540;9.268;2023-06-10T05:12:46;97197.19;;;15.62;100.00
5283;BME280;15376;48.540;9.268;2023-06-10T05:15:11;97195.56;;;15.80;100.00
5283;BME280;15376;48.540;9.268;2023-06-10T05:17:37;97204.06;;;15.95;100.00
5283;BME280;15376;48.540;9.268;2023-06-10T05:20:03;97190.50;;;16.08;100.00
5283;BME280;15376;48.540;9.268;2023-06-10T05:22:29;97193.47;;;16.18;100.00
5283;BME280;15376;48.540;9.268;2023-06-10T05:24:54;97195.25;;;16.24;100.00
5283;BME280;15376;48.540;9.268;2023-06-10T05:27:19;97203.41;;;16.29;100.00
5283;BME280;15376;48.540;9.268;2023-06-10T05:29:46;97177.75;;;16.22;100.00
5283;BME280;15376;48.540;9.268;2023-06-10T05:32:11;97197.53;;;16.39;100.00
5283;BME280;15376;48.540;9.268;2023-06-10T05:34:37;97169.72;;;16.22;100.00
5283;BME280;15376;48.540;9.268;2023-06-10T05:37:02;97178.84;;;16.32;100.00
5283;BME280;15376;48.540;9.268;2023-06-10T05:39:28;97190.09;;;16.53;100.00
5283;BME280;15376;48.540;9.268;2023-06-10T05:41:53;97117.25;;;16.14;100.00
5283;BME280;15376;48.540;9.268;2023-06-10T05:44:18;97202.09;;;16.80;100.00
5283;BME280;15376;48.540;9.268;2023-06-10T05:46:44;97190.72;;;16.96;100.00
5283;BME280;15376;48.540;9.268;2023-06-10T05:49:09;97201.59;;;17.25;100.00
5283;BME280;15376;48.540;9.268;2023-06-10T05:51:35;97199.38;;;17.33;100.00
5283;BME280;15376;48.540;9.268;2023-06-10T05:54:02;97194.50;;;17.42;98.82
5283;BME280;15376;48.540;9.268;2023-06-10T05:56:27;97201.13;;;17.63;99.36
5283;BME280;15376;48.540;9.268;2023-06-10T05:58:52;97211.91;;;17.75;98.05
5283;BME280;15376;48.540;9.268;2023-06-10T06:01:18;97177.81;;;17.75;98.55
5283;BME280;15376;48.540;9.268;2023-06-10T06:03:43;97201.91;;;18.10;97.96
5283;BME280;15376;48.540;9.268;2023-06-10T06:06:09;97188.56;;;18.15;97.20
5283;BME280;15376;48.540;9.268;2023-06-10T06:08:34;97201.97;;;18.39;97.18
5283;BME280;15376;48.540;9.268;2023-06-10T06:10:59;97185.06;;;18.43;97.20
5283;BME280;15376;48.540;9.268;2023-06-10T06:13:25;97199.63;;;18.71;96.69
5283;BME280;15376;48.540;9.268;2023-06-10T06:15:50;97200.53;;;18.76;94.81
5283;BME280;15376;48.540;9.268;2023-06-10T06:18:16;97203.38;;;18.86;92.77
5283;BME280;15376;48.540;9.268;2023-06-10T06:20:41;97203.91;;;19.00;90.85
5283;BME280;15376;48.540;9.268;2023-06-10T06:23:06;97189.53;;;18.78;88.52
5283;BME280;15376;48.540;9.268;2023-06-10T06:25:35;97197.50;;;18.89;88.46
5283;BME280;15376;48.540;9.268;2023-06-10T06:28:01;97200.97;;;19.02;89.21
5283;BME280;15376;48.540;9.268;2023-06-10T06:30:26;97208.78;;;19.20;89.11
5283;BME280;15376;48.540;9.268;2023-06-10T06:32:51;97196.97;;;19.21;87.20
5283;BME280;15376;48.540;9.268;2023-06-10T06:35:17;97198.34;;;19.23;85.17
5283;BME280;15376;48.540;9.268;2023-06-10T06:37:42;97189.63;;;19.16;86.07
5283;BME280;15376;48.540;9.268;2023-06-10T06:40:08;97205.44;;;19.46;86.23
5283;BME280;15376;48.540;9.268;2023-06-10T06:42:33;97186.03;;;19.44;85.70
5283;BME280;15376;48.540;9.268;2023-06-10T06:44:58;97212.22;;;19.65;85.08
5283;BME280;15376;48.540;9.268;2023-06-10T06:47:24;97187.75;;;19.50;85.66
5283;BME280;15376;48.540;9.268;2023-06-10T06:49:49;97199.56;;;19.66;84.99
5283;BME280;15376;48.540;9.268;2023-06-10T06:52:15;97209.09;;;19.74;84.39
5283;BME280;15376;48.540;9.268;2023-06-10T06:54:40;97213.59;;;19.85;84.47
5283;BME280;15376;48.540;9.268;2023-06-10T06:57:06;97200.22;;;19.73;83.59
5283;BME280;15376;48.540;9.268;2023-06-10T06:59:32;97186.78;;;19.95;84.28
5283;BME280;15376;48.540;9.268;2023-06-10T07:01:58;97199.25;;;20.23;83.81
5283;BME280;15376;48.540;9.268;2023-06-10T07:04:23;97207.78;;;20.37;84.09
5283;BME280;15376;48.540;9.268;2023-06-10T07:06:48;97207.66;;;20.48;83.18
5283;BME280;15376;48.540;9.268;2023-06-10T07:09:14;97209.59;;;20.53;82.93
5283;BME280;15376;48.540;9.268;2023-06-10T07:11:39;97195.47;;;20.68;82.92
5283;BME280;15376;48.540;9.268;2023-06-10T07:14:05;97200.03;;;20.67;81.72
5283;BME280;15376;48.540;9.268;2023-06-10T07:16:30;97201.16;;;20.71;82.01
5283;BME280;15376;48.540;9.268;2023-06-10T07:18:55;97212.56;;;20.78;81.56
5283;BME280;15376;48.540;9.268;2023-06-10T07:21:21;97207.94;;;20.74;81.60
5283;BME280;15376;48.540;9.268;2023-06-10T07:23:47;97189.25;;;20.67;81.09
5283;BME280;15376;48.540;9.268;2023-06-10T07:26:13;97201.78;;;20.78;81.14
5283;BME280;15376;48.540;9.268;2023-06-10T07:28:41;97193.81;;;20.93;80.47
5283;BME280;15376;48.540;9.268;2023-06-10T07:31:07;97211.94;;;21.25;79.96
5283;BME280;15376;48.540;9.268;2023-06-10T07:33:33;97197.25;;;21.16;79.56
5283;BME280;15376;48.540;9.268;2023-06-10T07:35:59;97211.47;;;21.33;80.43
5283;BME280;15376;48.540;9.268;2023-06-10T07:38:25;97197.88;;;21.23;80.59
5283;BME280;15376;48.540;9.268;2023-06-10T07:40:51;97208.78;;;21.38;80.03
5283;BME280;15376;48.540;9.268;2023-06-10T07:43:16;97209.00;;;21.32;80.24
5283;BME280;15376;48.540;9.268;2023-06-10T07:45:43;97205.50;;;21.31;80.75
5283;BME280;15376;48.540;9.268;2023-06-10T07:48:08;97199.44;;;21.51;80.07
5283;BME280;15376;48.540;9.268;2023-06-10T07:50:34;97201.00;;;21.42;79.44
5283;BME280;15376;48.540;9.268;2023-06-10T07:52:59;97194.63;;;21.63;79.42
5283;BME280;15376;48.540;9.268;2023-06-10T07:55:25;97202.59;;;21.80;78.49
5283;BME280;15376;48.540;9.268;2023-06-10T07:57:51;97188.81;;;21.81;77.89
5283;BME280;15376;48.540;9.268;2023-06-10T08:00:17;97200.84;;;22.06;77.83
5283;BME280;15376;48.540;9.268;2023-06-10T08:02:43;97191.59;;;21.91;77.35
5283;BME280;15376;48.540;9.268;2023-06-10T08:05:08;97200.56;;;22.02;77.79
5283;BME280;15376;48.540;9.268;2023-06-10T08:07:34;97199.97;;;21.95;76.81
5283;BME280;15376;48.540;9.268;2023-06-10T08:10:00;97170.16;;;21.80;77.48
5283;BME280;15376;48.540;9.268;2023-06-10T08:12:25;97194.38;;;22.07;78.37
5283;BME280;15376;48.540;9.268;2023-06-10T08:14:51;97167.59;;;22.05;78.32
5283;BME280;15376;48.540;9.268;2023-06-10T08:17:16;97184.47;;;22.27;77.63
5283;BME280;15376;48.540;9.268;2023-06-10T08:19:41;97189.38;;;22.46;76.15
5283;BME280;15376;48.540;9.268;2023-06-10T08:22:07;97172.84;;;22.42;75.46
5283;BME280;15376;48.540;9.268;2023-06-10T08:24:32;97188.59;;;22.55;74.48
5283;BME280;15376;48.540;9.268;2023-06-10T08:26:57;97169.34;;;22.37;74.17
5283;BME280;15376;48.540;9.268;2023-06-10T08:29:23;97178.09;;;22.69;74.26
5283;BME280;15376;48.540;9.268;2023-06-10T08:31:48;97181.34;;;22.66;73.90
5283;BME280;15376;48.540;9.268;2023-06-10T08:34:14;97179.72;;;22.70;72.84
5283;BME280;15376;48.540;9.268;2023-06-10T08:36:39;97185.69;;;22.77;72.31
5283;BME280;15376;48.540;9.268;2023-06-10T08:39:05;97182.22;;;23.02;73.43
5283;BME280;15376;48.540;9.268;2023-06-10T08:41:35;97179.22;;;22.83;72.36
5283;BME280;15376;48.540;9.268;2023-06-10T08:44:12;97176.25;;;23.00;73.33
5283;BME280;15376;48.540;9.268;2023-06-10T08:46:45;97186.03;;;23.16;72.42
5283;BME280;15376;48.540;9.268;2023-06-10T08:49:23;97184.66;;;23.19;72.23
5283;BME280;15376;48.540;9.268;2023-06-10T08:51:55;97164.63;;;23.05;72.64
5283;BME280;15376;48.540;9.268;2023-06-10T08:54:26;97180.84;;;23.20;72.71
5283;BME280;15376;48.540;9.268;2023-06-10T08:56:53;97178.72;;;23.17;71.88
5283;BME280;15376;48.540;9.268;2023-06-10T08:59:21;97177.59;;;23.23;70.49
5283;BME280;15376;48.540;9.268;2023-06-10T09:01:46;97181.94;;;23.29;71.14
5283;BME280;15376;48.540;9.268;2023-06-10T09:04:13;97152.16;;;23.19;70.26
5283;BME280;15376;48.540;9.268;2023-06-10T09:06:38;97165.44;;;23.56;70.80
5283;BME280;15376;48.540;9.268;2023-06-10T09:09:06;97162.16;;;23.49;69.19
5283;BME280;15376;48.540;9.268;2023-06-10T09:11:32;97167.81;;;23.73;67.14
5283;BME280;15376;48.540;9.268;2023-06-10T09:13:58;97159.03;;;24.06;66.25
5283;BME280;15376;48.540;9.268;2023-06-10T09:16:24;97154.88;;;24.34;63.65
5283;BME280;15376;48.540;9.268;2023-06-10T09:18:50;97153.94;;;24.54;63.32
5283;BME280;15376;48.540;9.268;2023-06-10T09:21:23;97150.50;;;24.82;63.70
5283;BME280;15376;48.540;9.268;2023-06-10T09:23:49;97160.19;;;24.99;60.47
5283;BME280;15376;48.540;9.268;2023-06-10T09:26:15;97152.81;;;25.04;57.52
5283;BME280;15376;48.540;9.268;2023-06-10T09:28:43;97161.06;;;25.23;57.57
5283;BME280;15376;48.540;9.268;2023-06-10T09:31:09;97169.59;;;25.45;55.96
5283;BME280;15376;48.540;9.268;2023-06-10T09:33:38;97186.34;;;25.86;54.30
5283;BME280;15376;48.540;9.268;2023-06-10T09:36:07;97176.88;;;26.03;52.49
5283;BME280;15376;48.540;9.268;2023-06-10T09:38:35;97178.69;;;26.12;52.24
5283;BME280;15376;48.540;9.268;2023-06-10T09:41:00;97173.34;;;26.02;51.95
5283;BME280;15376;48.540;9.268;2023-06-10T09:43:54;97181.25;;;25.80;51.82
5283;BME280;15376;48.540;9.268;2023-06-10T09:46:20;97165.16;;;25.83;51.08
5283;BME280;15376;48.540;9.268;2023-06-10T09:48:47;97182.63;;;26.01;50.69
5283;BME280;15376;48.540;9.268;2023-06-10T09:51:13;97178.63;;;26.17;50.81
5283;BME280;15376;48.540;9.268;2023-06-10T09:53:39;97172.91;;;25.95;50.01
5283;BME280;15376;48.540;9.268;2023-06-10T09:56:05;97182.06;;;25.80;49.42
5283;BME280;15376;48.540;9.268;2023-06-10T09:58:38;97185.53;;;25.86;50.28
5283;BME280;15376;48.540;9.268;2023-06-10T10:01:09;97179.56;;;26.08;51.65
5283;BME280;15376;48.540;9.268;2023-06-10T10:03:43;97171.50;;;26.21;49.29
5283;BME280;15376;48.540;9.268;2023-06-10T10:06:09;97181.44;;;26.55;50.56
5283;BME280;15376;48.540;9.268;2023-06-10T10:08:35;97178.81;;;26.87;48.22
5283;BME280;15376;48.540;9.268;2023-06-10T10:11:01;97187.16;;;26.96;49.00
5283;BME280;15376;48.540;9.268;2023-06-10T10:13:28;97166.97;;;26.97;49.85
5283;BME280;15376;48.540;9.268;2023-06-10T10:15:56;97144.38;;;26.78;49.69
5283;BME280;15376;48.540;9.268;2023-06-10T10:18:28;97159.16;;;26.72;49.28
5283;BME280;15376;48.540;9.268;2023-06-10T10:20:55;97140.59;;;27.25;48.59
5283;BME280;15376;48.540;9.268;2023-06-10T10:23:29;97168.03;;;28.07;46.22
5283;BME280;15376;48.540;9.268;2023-06-10T10:25:57;97169.34;;;29.01;44.09
5283;BME280;15376;48.540;9.268;2023-06-10T10:28:29;97171.63;;;30.05;42.11
5283;BME280;15376;48.540;9.268;2023-06-10T10:31:03;97185.44;;;31.14;39.59
5283;BME280;15376;48.540;9.268;2023-06-10T10:33:42;97175.00;;;31.63;38.99
5283;BME280;15376;48.540;9.268;2023-06-10T10:36:10;97187.28;;;32.29;37.73
5283;BME280;15376;48.540;9.268;2023-06-10T10:38:37;97172.47;;;33.34;35.42
5283;BME280;15376;48.540;9.268;2023-06-10T10:41:04;97174.78;;;33.11;34.43
5283;BME280;15376;48.540;9.268;2023-06-10T10:43:30;97180.72;;;33.88;33.79
5283;BME280;15376;48.540;9.268;2023-06-10T10:46:03;97172.56;;;35.29;32.85
5283;BME280;15376;48.540;9.268;2023-06-10T10:48:37;97175.63;;;35.28;29.79
5283;BME280;15376;48.540;9.268;2023-06-10T10:51:03;97174.16;;;31.97;33.03
5283;BME280;15376;48.540;9.268;2023-06-10T10:53:29;97175.41;;;31.01;35.31
5283;BME280;15376;48.540;9.268;2023-06-10T10:56:08;97170.06;;;32.70;34.57
5283;BME280;15376;48.540;9.268;2023-06-10T10:58:34;97165.81;;;32.14;34.45
5283;BME280;15376;48.540;9.268;2023-06-10T11:00:59;97156.03;;;30.71;37.22
5283;BME280;15376;48.540;9.268;2023-06-10T11:03:42;97149.72;;;31.40;37.27
5283;BME280;15376;48.540;9.268;2023-06-10T11:06:16;97158.25;;;31.56;36.31
5283;BME280;15376;48.540;9.268;2023-06-10T11:11:26;97152.56;;;28.94;40.81
5283;BME280;15376;48.540;9.268;2023-06-10T11:16:29;97152.28;;;32.00;36.09
5283;BME280;15376;48.540;9.268;2023-06-10T11:18:56;97159.56;;;31.49;36.20
5283;BME280;15376;48.540;9.268;2023-06-10T11:21:24;97152.78;;;29.73;38.75
5283;BME280;15376;48.540;9.268;2023-06-10T11:23:51;97153.75;;;30.08;38.61
5283;BME280;15376;48.540;9.268;2023-06-10T11:31:22;97157.34;;;29.86;39.96
5283;BME280;15376;48.540;9.268;2023-06-10T11:33:52;97153.09;;;31.45;37.20
5283;BME280;15376;48.540;9.268;2023-06-10T11:36:18;97149.56;;;31.36;35.59
5283;BME280;15376;48.540;9.268;2023-06-10T11:38:43;97142.50;;;30.75;38.11
5283;BME280;15376;48.540;9.268;2023-06-10T11:41:11;97126.50;;;32.52;36.48
5283;BME280;15376;48.540;9.268;2023-06-10T11:43:45;97151.41;;;33.84;33.29
5283;BME280;15376;48.540;9.268;2023-06-10T11:46:12;97143.97;;;33.96;33.20
5283;BME280;15376;48.540;9.268;2023-06-10T11:48:37;97143.63;;;32.99;32.95
5283;BME280;15376;48.540;9.268;2023-06-10T11:51:08;97135.63;;;31.59;36.50
5283;BME280;15376;48.540;9.268;2023-06-10T11:53:34;97141.81;;;31.21;35.61
5283;BME280;15376;48.540;9.268;2023-06-10T11:56:00;97145.31;;;32.03;34.50
5283;BME280;15376;48.540;9.268;2023-06-10T11:58:25;97137.28;;;33.40;32.44
5283;BME280;15376;48.540;9.268;2023-06-10T12:00:55;97136.97;;;34.48;31.66
5283;BME280;15376;48.540;9.268;2023-06-10T12:03:24;97127.56;;;34.36;30.76
5283;BME280;15376;48.540;9.268;2023-06-10T12:06:04;97130.53;;;33.83;31.08
5283;BME280;15376;48.540;9.268;2023-06-10T12:08:30;97124.53;;;33.81;31.41
5283;BME280;15376;48.540;9.268;2023-06-10T12:10:56;97093.84;;;34.55;29.78
5283;BME280;15376;48.540;9.268;2023-06-10T12:13:23;97137.00;;;34.88;29.01
5283;BME280;15376;48.540;9.268;2023-06-10T12:15:51;97118.38;;;35.53;28.01
5283;BME280;15376;48.540;9.268;2023-06-10T12:18:20;97139.13;;;36.92;26.94
5283;BME280;15376;48.540;9.268;2023-06-10T12:20:46;97136.75;;;36.08;28.69
5283;BME280;15376;48.540;9.268;2023-06-10T12:23:12;97134.69;;;35.58;28.36
5283;BME280;15376;48.540;9.268;2023-06-10T12:25:39;97115.59;;;34.20;29.69
5283;BME280;15376;48.540;9.268;2023-06-10T12:28:05;97131.56;;;32.11;31.60
5283;BME280;15376;48.540;9.268;2023-06-10T12:30:32;97110.78;;;30.43;34.46
5283;BME280;15376;48.540;9.268;2023-06-10T12:32:57;97112.78;;;29.55;35.21
5283;BME280;15376;48.540;9.268;2023-06-10T12:35:27;97113.13;;;28.72;38.75
5283;BME280;15376;48.540;9.268;2023-06-10T12:37:58;97110.50;;;28.17;38.83
5283;BME280;15376;48.540;9.268;2023-06-10T12:40:29;97112.41;;;29.47;39.39
5283;BME280;15376;48.540;9.268;2023-06-10T12:42:55;97099.75;;;31.64;35.71
5283;BME280;15376;48.540;9.268;2023-06-10T12:45:34;97121.69;;;33.23;31.96
5283;BME280;15376;48.540;9.268;2023-06-10T12:48:11;97123.47;;;33.73;32.55
5283;BME280;15376;48.540;9.268;2023-06-10T12:50:38;97113.97;;;34.43;29.71
5283;BME280;15376;48.540;9.268;2023-06-10T12:53:04;97118.25;;;34.93;29.37
5283;BME280;15376;48.540;9.268;2023-06-10T12:55:29;97111.56;;;35.22;28.79
5283;BME280;15376;48.540;9.268;2023-06-10T12:57:55;97121.25;;;36.03;27.68
5283;BME280;15376;48.540;9.268;2023-06-10T13:00:22;97121.69;;;36.37;27.58
5283;BME280;15376;48.540;9.268;2023-06-10T13:02:51;97104.16;;;34.83;28.21
5283;BME280;15376;48.540;9.268;2023-06-10T13:05:17;97107.66;;;34.43;28.49
5283;BME280;15376;48.540;9.268;2023-06-10T13:07:43;97103.53;;;34.49;30.04
5283;BME280;15376;48.540;9.268;2023-06-10T13:10:09;97113.09;;;35.63;27.59
5283;BME280;15376;48.540;9.268;2023-06-10T13:12:35;97100.34;;;35.15;27.92
5283;BME280;15376;48.540;9.268;2023-06-10T13:15:01;97107.66;;;35.51;27.29
5283;BME280;15376;48.540;9.268;2023-06-10T13:17:27;97111.69;;;35.54;27.40